createdAt,value
2022-09-28T00:00:07.875Z,19.90
2022-09-28T00:03:04.169Z,20.10
2022-09-28T00:05:36.444Z,18.30
2022-09-28T00:08:08.350Z,19.90
2022-09-28T00:10:43.458Z,18.50
2022-09-28T00:13:15.822Z,17.90
2022-09-28T00:15:47.737Z,17.20
2022-09-28T00:18:19.683Z,15.60
2022-09-28T00:21:00.609Z,16.80
2022-09-28T00:23:33.230Z,14.20
2022-09-28T00:26:08.600Z,12.20
2022-09-28T00:28:40.521Z,12.20
2022-09-28T00:31:18.257Z,12.70
2022-09-28T00:33:57.014Z,12.60
2022-09-28T00:36:38.225Z,11.40
2022-09-28T00:39:17.084Z,11.50
2022-09-28T00:41:51.433Z,11.30
2022-09-28T00:44:43.594Z,8.40
2022-09-28T00:47:41.748Z,7.00
2022-09-28T00:50:29.711Z,7.90
2022-09-28T00:53:16.552Z,6.30
2022-09-28T00:55:53.515Z,5.40
2022-09-28T00:58:31.126Z,4.60
2022-09-28T01:01:14.688Z,4.80
2022-09-28T01:03:54.885Z,4.60
2022-09-28T01:06:34.121Z,4.30
2022-09-28T01:09:12.689Z,5.00
2022-09-28T01:11:45.142Z,6.30
2022-09-28T01:14:19.248Z,11.20
2022-09-28T01:17:02.002Z,8.50
2022-09-28T01:20:05.669Z,9.70
2022-09-28T01:23:01.914Z,8.10
2022-09-28T01:25:46.881Z,8.50
2022-09-28T01:28:22.218Z,8.20
2022-09-28T01:31:04.498Z,4.80
2022-09-28T01:33:41.153Z,5.90
2022-09-28T01:36:19.477Z,4.90
2022-09-28T01:38:56.343Z,4.50
2022-09-28T01:41:33.510Z,6.10
2022-09-28T01:44:09.895Z,7.40
2022-09-28T01:46:44.956Z,6.50
2022-09-28T01:49:24.101Z,6.20
2022-09-28T01:52:02.092Z,4.60
2022-09-28T01:54:39.390Z,4.50
2022-09-28T01:57:16.465Z,4.00
2022-09-28T01:59:56.951Z,5.80
2022-09-28T02:02:36.061Z,9.20
2022-09-28T02:05:12.870Z,8.10
2022-09-28T02:07:48.644Z,5.70
2022-09-28T02:10:25.922Z,3.60
2022-09-28T02:13:02.643Z,3.90
2022-09-28T02:15:41.673Z,3.40
2022-09-28T02:18:14.290Z,3.30
2022-09-28T02:20:53.965Z,3.20
2022-09-28T02:23:27.889Z,3.70
2022-09-28T02:26:06.305Z,4.50
2022-09-28T02:28:38.392Z,4.20
2022-09-28T02:31:10.548Z,3.50
2022-09-28T02:33:46.179Z,2.60
2022-09-28T02:36:18.312Z,3.30
2022-09-28T02:38:50.399Z,3.00
2022-09-28T02:41:36.393Z,2.50
2022-09-28T02:44:22.499Z,3.10
2022-09-28T02:47:01.682Z,2.60
2022-09-28T02:49:46.145Z,2.80
2022-09-28T02:52:35.478Z,3.40
2022-09-28T02:55:19.428Z,3.80
2022-09-28T02:58:09.712Z,3.90
2022-09-28T03:00:50.519Z,3.90
2022-09-28T03:03:30.352Z,3.20
2022-09-28T03:06:08.786Z,4.50
2022-09-28T03:08:51.247Z,4.00
2022-09-28T03:11:28.028Z,3.50
2022-09-28T03:14:02.060Z,4.50
2022-09-28T03:16:45.835Z,5.60
2022-09-28T03:19:21.900Z,8.80
2022-09-28T03:21:54.179Z,9.00
2022-09-28T03:24:26.239Z,8.90
2022-09-28T03:26:58.203Z,8.40
2022-09-28T03:29:33.136Z,10.10
2022-09-28T03:32:07.844Z,26.50
2022-09-28T03:34:39.793Z,51.70
2022-09-28T03:37:11.631Z,25.90
2022-09-28T03:39:43.625Z,13.20
2022-09-28T03:42:15.570Z,12.20
2022-09-28T03:44:50.355Z,11.50
2022-09-28T03:47:22.529Z,13.20
2022-09-28T03:49:54.482Z,20.80
2022-09-28T03:52:26.359Z,12.20
2022-09-28T03:54:58.396Z,13.10
2022-09-28T03:57:30.345Z,17.00
2022-09-28T04:00:02.756Z,13.60
2022-09-28T04:02:35.028Z,15.90
2022-09-28T04:05:09.444Z,16.20
2022-09-28T04:07:42.727Z,12.40
2022-09-28T04:10:14.814Z,12.70
2022-09-28T04:12:46.949Z,12.40
2022-09-28T04:15:19.989Z,13.60
2022-09-28T04:17:51.940Z,15.00
2022-09-28T04:20:46.275Z,14.80
2022-09-28T04:23:18.557Z,13.70
2022-09-28T04:25:55.350Z,11.50
2022-09-28T04:29:04.055Z,11.90
2022-09-28T04:31:43.264Z,12.80
2022-09-28T04:34:17.533Z,11.90
2022-09-28T04:36:50.205Z,11.00
2022-09-28T04:39:22.105Z,10.90
2022-09-28T04:41:57.064Z,11.40
2022-09-28T04:44:28.961Z,11.70
2022-09-28T04:47:05.397Z,10.70
2022-09-28T04:49:38.528Z,16.60
2022-09-28T04:52:18.289Z,13.10
2022-09-28T04:54:53.380Z,13.60
2022-09-28T04:57:25.216Z,16.20
2022-09-28T04:59:57.080Z,13.50
2022-09-28T05:02:29.714Z,14.70
2022-09-28T05:05:20.835Z,15.80
2022-09-28T05:08:12.875Z,12.50
2022-09-28T05:10:46.539Z,13.20
2022-09-28T05:13:18.875Z,54.00
2022-09-28T05:15:58.199Z,133.60
2022-09-28T05:18:33.824Z,21.70
2022-09-28T05:21:12.910Z,25.60
2022-09-28T05:23:48.843Z,15.30
2022-09-28T05:26:20.938Z,32.90
2022-09-28T05:28:53.870Z,17.60
2022-09-28T05:31:27.347Z,13.80
2022-09-28T05:34:18.011Z,13.10
2022-09-28T05:36:50.344Z,12.80
2022-09-28T05:39:22.640Z,60.10
2022-09-28T05:41:55.803Z,43.30
2022-09-28T05:44:27.654Z,21.00
2022-09-28T05:47:00.249Z,29.10
2022-09-28T05:49:33.459Z,29.40
2022-09-28T05:52:06.427Z,86.90
2022-09-28T05:54:42.195Z,40.60
2022-09-28T05:57:14.456Z,34.60
2022-09-28T05:59:46.333Z,15.90
2022-09-28T06:02:18.436Z,14.60
2022-09-28T06:04:51.486Z,15.90
2022-09-28T06:07:23.992Z,15.90
2022-09-28T06:09:55.942Z,12.80
2022-09-28T06:12:42.429Z,14.20
2022-09-28T06:15:19.359Z,14.40
2022-09-28T06:17:58.638Z,14.40
2022-09-28T06:20:47.632Z,15.40
2022-09-28T06:23:21.221Z,13.40
2022-09-28T06:25:53.785Z,15.60
2022-09-28T06:28:27.030Z,13.20
2022-09-28T06:31:00.387Z,14.10
2022-09-28T06:33:32.587Z,13.30
2022-09-28T06:36:04.622Z,14.90
2022-09-28T06:38:36.846Z,14.60
2022-09-28T06:41:09.141Z,15.30
2022-09-28T06:43:41.636Z,13.50
2022-09-28T06:46:33.467Z,13.00
2022-09-28T06:49:30.404Z,14.20
2022-09-28T06:52:21.220Z,12.20
2022-09-28T06:55:09.103Z,12.20
2022-09-28T06:57:47.177Z,11.70
2022-09-28T07:00:19.452Z,11.10
2022-09-28T07:02:52.222Z,11.10
2022-09-28T07:05:56.688Z,11.90
2022-09-28T07:08:57.372Z,10.90
2022-09-28T07:12:01.076Z,11.20
2022-09-28T07:14:48.083Z,12.40
2022-09-28T07:17:20.830Z,12.80
2022-09-28T07:19:53.760Z,13.40
2022-09-28T07:22:40.290Z,12.70
2022-09-28T07:25:17.216Z,11.00
2022-09-28T07:27:57.464Z,11.20
2022-09-28T07:30:45.730Z,11.00
2022-09-28T07:33:43.733Z,11.10
2022-09-28T07:36:28.605Z,10.50
2022-09-28T07:39:00.557Z,10.10
2022-09-28T07:41:36.342Z,11.00
2022-09-28T07:44:11.088Z,10.40
2022-09-28T07:46:44.680Z,10.70
2022-09-28T07:49:25.699Z,10.80
2022-09-28T07:52:18.635Z,9.40
2022-09-28T07:55:12.462Z,8.70
2022-09-28T07:58:01.950Z,7.80
2022-09-28T08:01:07.287Z,9.50
2022-09-28T08:03:40.339Z,8.60
2022-09-28T08:06:13.245Z,10.30
2022-09-28T08:08:46.153Z,8.40
2022-09-28T08:11:20.287Z,8.70
2022-09-28T08:14:07.227Z,8.80
2022-09-28T08:17:05.751Z,8.30
2022-09-28T08:20:06.445Z,8.30
2022-09-28T08:22:38.833Z,7.80
2022-09-28T08:25:11.803Z,7.90
2022-09-28T08:27:43.690Z,7.90
2022-09-28T08:30:16.029Z,7.40
2022-09-28T08:33:07.722Z,7.10
2022-09-28T08:35:49.359Z,6.80
2022-09-28T08:38:35.844Z,6.70
2022-09-28T08:41:56.093Z,6.10
2022-09-28T08:45:08.880Z,6.40
2022-09-28T08:48:15.259Z,7.70
2022-09-28T08:51:20.195Z,6.50
2022-09-28T08:54:11.952Z,6.50
2022-09-28T08:57:08.567Z,6.90
2022-09-28T08:59:48.054Z,6.70
2022-09-28T09:02:28.755Z,6.60
2022-09-28T09:05:19.258Z,6.30
2022-09-28T09:08:23.396Z,5.70
2022-09-28T09:11:03.511Z,5.30
2022-09-28T09:13:52.936Z,5.20
2022-09-28T09:16:39.954Z,4.40
2022-09-28T09:19:42.039Z,6.40
2022-09-28T09:22:36.294Z,7.70
2022-09-28T09:25:20.857Z,6.80
2022-09-28T09:28:09.463Z,6.70
2022-09-28T09:30:52.318Z,6.40
2022-09-28T09:33:52.203Z,5.80
2022-09-28T09:37:00.453Z,4.80
2022-09-28T09:40:04.218Z,5.60
2022-09-28T09:43:05.704Z,6.70
2022-09-28T09:46:03.360Z,5.30
2022-09-28T09:48:47.463Z,6.00
2022-09-28T09:51:30.074Z,7.30
2022-09-28T09:54:08.593Z,6.90
2022-09-28T09:56:46.462Z,6.00
2022-09-28T09:59:26.281Z,8.00
2022-09-28T10:02:22.379Z,8.70
2022-09-28T10:05:03.671Z,6.90
2022-09-28T10:07:44.742Z,7.70
2022-09-28T10:10:27.843Z,8.70
2022-09-28T10:13:19.612Z,8.20
2022-09-28T10:15:52.864Z,6.10
2022-09-28T10:18:29.887Z,8.90
2022-09-28T10:21:23.240Z,7.80
2022-09-28T10:24:03.492Z,7.50
2022-09-28T10:26:40.289Z,8.60
2022-09-28T10:29:21.568Z,7.50
2022-09-28T10:31:55.816Z,7.50
2022-09-28T10:34:31.770Z,7.70
2022-09-28T10:37:13.427Z,7.50
2022-09-28T10:40:02.046Z,10.00
2022-09-28T10:42:36.622Z,9.90
2022-09-28T10:45:23.598Z,10.50
2022-09-28T10:47:55.946Z,10.30
2022-09-28T10:50:29.251Z,10.70
2022-09-28T10:53:21.706Z,9.80
2022-09-28T10:56:24.759Z,8.60
2022-09-28T10:59:02.030Z,9.10
2022-09-28T11:01:48.056Z,8.00
2022-09-28T11:04:25.506Z,7.50
2022-09-28T11:09:35.424Z,10.10
2022-09-28T11:12:18.389Z,10.70
2022-09-28T11:14:56.157Z,12.30
2022-09-28T11:17:31.490Z,15.40
2022-09-28T11:22:44.471Z,53.40
2022-09-28T11:25:24.576Z,42.10
2022-09-28T11:28:04.704Z,28.20
2022-09-28T11:30:45.996Z,22.10
2022-09-28T11:33:38.877Z,11.40
2022-09-28T11:36:39.156Z,12.30
2022-09-28T11:39:22.455Z,8.10
2022-09-28T11:42:07.249Z,6.00
2022-09-28T11:44:46.624Z,6.10
2022-09-28T11:47:44.348Z,6.00
2022-09-28T11:50:28.526Z,6.50
2022-09-28T11:53:10.311Z,6.10
2022-09-28T11:55:48.528Z,5.30
2022-09-28T11:58:32.704Z,6.30
2022-09-28T12:01:14.292Z,5.40
2022-09-28T12:04:09.713Z,7.40
2022-09-28T12:06:46.490Z,5.00
2022-09-28T12:09:23.806Z,6.70
2022-09-28T12:12:12.150Z,5.70
2022-09-28T12:14:49.381Z,4.40
2022-09-28T12:17:26.145Z,5.50
2022-09-28T12:20:04.133Z,5.30
2022-09-28T12:22:41.885Z,5.30
2022-09-28T12:25:18.004Z,8.70
2022-09-28T12:27:55.106Z,5.10
2022-09-28T12:30:31.949Z,5.60
2022-09-28T12:33:09.339Z,5.80
2022-09-28T12:35:53.870Z,6.60
2022-09-28T12:38:45.972Z,5.80
2022-09-28T12:41:39.328Z,5.80
2022-09-28T12:44:34.110Z,6.30
2022-09-28T12:47:24.799Z,5.10
2022-09-28T12:53:16.411Z,5.90
2022-09-28T12:55:59.142Z,9.60
2022-09-28T12:59:00.081Z,6.10
2022-09-28T13:01:51.434Z,6.60
2022-09-28T13:04:39.277Z,7.00
2022-09-28T13:07:15.493Z,7.40
2022-09-28T13:09:58.872Z,5.60
2022-09-28T13:12:38.262Z,5.20
2022-09-28T13:15:28.397Z,5.00
2022-09-28T13:18:06.402Z,9.80
2022-09-28T13:20:59.569Z,4.80
2022-09-28T13:23:35.738Z,4.80
2022-09-28T13:26:15.940Z,4.80
2022-09-28T13:28:51.496Z,6.10
2022-09-28T13:31:31.820Z,11.80
2022-09-28T13:34:07.390Z,11.60
2022-09-28T13:36:47.870Z,5.00
2022-09-28T13:39:38.623Z,89.00
2022-09-28T13:42:13.321Z,19.60
2022-09-28T13:47:48.656Z,5.40
2022-09-28T13:50:34.477Z,5.20
2022-09-28T13:53:16.470Z,5.00
2022-09-28T13:55:58.563Z,6.50
2022-09-28T13:58:37.222Z,5.60
2022-09-28T14:01:12.579Z,11.40
2022-09-28T14:03:58.204Z,6.60
2022-09-28T14:06:32.008Z,8.30
2022-09-28T14:09:28.702Z,8.10
2022-09-28T14:12:02.562Z,6.60
2022-09-28T14:14:52.061Z,5.20
2022-09-28T14:18:00.288Z,16.50
2022-09-28T14:20:35.753Z,10.40
2022-09-28T14:23:33.268Z,9.50
2022-09-28T14:26:29.589Z,5.20
2022-09-28T14:29:16.381Z,9.10
2022-09-28T14:31:48.672Z,9.50
2022-09-28T14:34:34.256Z,14.00
2022-09-28T14:37:37.573Z,11.10
2022-09-28T14:40:37.902Z,8.60
2022-09-28T14:43:37.162Z,10.30
2022-09-28T14:46:40.653Z,6.80
2022-09-28T14:49:43.144Z,9.60
2022-09-28T14:52:19.717Z,8.50
2022-09-28T14:54:59.298Z,6.70
2022-09-28T14:57:32.374Z,9.30
2022-09-28T15:00:16.340Z,8.30
2022-09-28T15:02:52.796Z,6.10
2022-09-28T15:05:29.028Z,5.80
2022-09-28T15:08:01.967Z,5.00
2022-09-28T15:10:36.930Z,11.30
2022-09-28T15:13:20.907Z,11.50
2022-09-28T15:15:55.889Z,18.20
2022-09-28T15:18:44.163Z,10.10
2022-09-28T15:21:16.488Z,8.50
2022-09-28T15:23:49.794Z,12.40
2022-09-28T15:26:29.770Z,11.30
2022-09-28T15:29:04.147Z,10.20
2022-09-28T15:31:38.448Z,9.70
2022-09-28T15:34:44.586Z,8.80
2022-09-28T15:37:19.108Z,10.40
2022-09-28T15:39:53.246Z,9.30
2022-09-28T15:42:25.735Z,9.80
2022-09-28T15:45:24.899Z,10.10
2022-09-28T15:48:18.565Z,9.00
2022-09-28T15:51:05.193Z,20.70
2022-09-28T15:53:37.552Z,14.80
2022-09-28T15:56:11.888Z,9.60
2022-09-28T15:58:44.402Z,11.70
2022-09-28T16:01:38.008Z,10.00
2022-09-28T16:04:40.596Z,10.50
2022-09-28T16:07:24.377Z,20.00
2022-09-28T16:10:30.482Z,24.30
2022-09-28T16:13:15.637Z,34.80
2022-09-28T16:15:49.821Z,37.60
2022-09-28T16:18:23.738Z,39.20
2022-09-28T16:20:57.302Z,38.70
2022-09-28T16:23:34.160Z,43.70
2022-09-28T16:26:10.649Z,48.50
2022-09-28T16:28:53.279Z,95.80
2022-09-28T16:31:34.577Z,75.40
2022-09-28T16:34:20.896Z,66.40
2022-09-28T16:36:53.201Z,77.10
2022-09-28T16:39:25.818Z,53.50
2022-09-28T16:42:02.012Z,51.00
2022-09-28T16:44:36.975Z,42.20
2022-09-28T16:47:09.112Z,46.60
2022-09-28T16:49:42.025Z,59.80
2022-09-28T16:52:34.726Z,60.40
2022-09-28T16:58:09.956Z,37.90
2022-09-28T17:00:43.545Z,27.90
2022-09-28T17:03:19.858Z,23.40
2022-09-28T17:05:52.858Z,22.30
2022-09-28T17:08:26.187Z,23.20
2022-09-28T17:11:23.367Z,29.50
2022-09-28T17:13:59.100Z,30.60
2022-09-28T17:17:02.318Z,35.30
2022-09-28T17:19:28.732Z,52.30
2022-09-28T17:22:00.559Z,48.30
2022-09-28T17:24:32.363Z,39.50
2022-09-28T17:27:07.028Z,19.10
2022-09-28T17:29:38.854Z,15.30
2022-09-28T17:32:18.229Z,16.10
2022-09-28T17:35:00.938Z,14.00
2022-09-28T17:37:42.258Z,10.30
2022-09-28T17:40:21.511Z,11.00
2022-09-28T17:42:55.261Z,11.20
2022-09-28T17:45:31.465Z,8.40
2022-09-28T17:48:03.956Z,10.60
2022-09-28T17:50:37.072Z,13.30
2022-09-28T17:53:08.900Z,11.30
2022-09-28T17:55:43.158Z,14.00
2022-09-28T17:58:23.234Z,14.80
2022-09-28T18:00:55.184Z,18.80
2022-09-28T18:03:28.244Z,34.10
2022-09-28T18:06:08.769Z,40.50
2022-09-28T18:08:40.868Z,37.10
2022-09-28T18:11:13.052Z,30.00
2022-09-28T18:13:47.430Z,19.20
2022-09-28T18:16:20.551Z,30.20
2022-09-28T18:18:52.660Z,29.40
2022-09-28T18:21:24.723Z,30.20
2022-09-28T18:23:56.755Z,29.90
2022-09-28T18:26:29.094Z,20.10
2022-09-28T18:29:01.131Z,15.50
2022-09-28T18:31:33.291Z,19.00
2022-09-28T18:34:06.078Z,33.00
2022-09-28T18:36:38.198Z,18.00
2022-09-28T18:39:10.310Z,15.00
2022-09-28T18:41:42.806Z,10.40
2022-09-28T18:44:14.893Z,7.00
2022-09-28T18:46:47.138Z,6.00
2022-09-28T18:49:19.329Z,7.00
2022-09-28T18:51:51.501Z,11.30
2022-09-28T18:54:23.608Z,11.30
2022-09-28T18:56:58.488Z,15.20
2022-09-28T19:02:01.451Z,31.90
2022-09-28T19:04:33.362Z,17.40
2022-09-28T19:07:05.198Z,15.70
2022-09-28T19:09:37.284Z,13.50
2022-09-28T19:12:09.164Z,12.50
2022-09-28T19:14:41.182Z,10.90
2022-09-28T19:17:13.314Z,10.10
2022-09-28T19:19:45.184Z,10.00
2022-09-28T19:22:18.011Z,8.30
2022-09-28T19:24:49.865Z,15.70
2022-09-28T19:27:21.726Z,15.00
2022-09-28T19:29:53.922Z,27.50
2022-09-28T19:32:25.707Z,22.40
2022-09-28T19:34:57.797Z,21.70
2022-09-28T19:37:30.121Z,18.60
2022-09-28T19:40:02.134Z,20.40
2022-09-28T19:42:36.348Z,25.00
2022-09-28T19:45:10.961Z,23.70
2022-09-28T19:47:42.819Z,14.40
2022-09-28T19:50:14.682Z,17.20
2022-09-28T19:52:46.630Z,16.60
2022-09-28T19:55:21.278Z,14.60
2022-09-28T19:57:53.119Z,21.70
2022-09-28T20:00:25.058Z,18.30
2022-09-28T20:02:56.977Z,32.30
2022-09-28T20:05:28.884Z,52.70
2022-09-28T20:08:00.755Z,26.60
2022-09-28T20:10:32.625Z,19.30
2022-09-28T20:13:04.781Z,15.40
2022-09-28T20:15:38.056Z,18.40
2022-09-28T20:18:12.240Z,20.10
2022-09-28T20:20:44.514Z,19.10
2022-09-28T20:23:16.406Z,18.40
2022-09-28T20:25:53.122Z,12.20
2022-09-28T20:28:24.969Z,11.40
2022-09-28T20:31:02.336Z,14.20
2022-09-28T20:33:36.075Z,15.00
2022-09-28T20:36:09.592Z,21.90
2022-09-28T20:38:41.736Z,18.60
2022-09-28T20:41:16.791Z,15.70
2022-09-28T20:43:51.861Z,14.60
2022-09-28T20:46:24.318Z,23.50
2022-09-28T20:48:57.993Z,31.20
2022-09-28T20:51:29.945Z,15.60
2022-09-28T20:54:01.970Z,24.50
2022-09-28T20:56:37.895Z,14.30
2022-09-28T20:59:13.049Z,12.80
2022-09-28T21:01:45.180Z,13.00
2022-09-28T21:04:17.244Z,13.90
2022-09-28T21:06:49.147Z,12.90
2022-09-28T21:09:20.950Z,13.60
2022-09-28T21:11:52.748Z,16.40
2022-09-28T21:14:24.917Z,11.90
2022-09-28T21:16:56.989Z,13.20
2022-09-28T21:19:29.519Z,12.20
2022-09-28T21:22:01.409Z,10.00
2022-09-28T21:24:33.333Z,11.70
2022-09-28T21:27:05.333Z,11.60
2022-09-28T21:29:37.186Z,10.10
2022-09-28T21:32:09.427Z,10.20
2022-09-28T21:34:41.330Z,9.20
2022-09-28T21:37:13.291Z,10.50
2022-09-28T21:39:45.195Z,9.20
2022-09-28T21:42:17.101Z,9.00
2022-09-28T21:44:49.007Z,10.20
2022-09-28T21:47:21.202Z,11.40
2022-09-28T21:49:53.092Z,12.70
2022-09-28T21:52:25.158Z,12.90
2022-09-28T21:54:57.028Z,10.50
2022-09-28T21:57:28.934Z,11.60
2022-09-28T22:00:00.860Z,9.60
2022-09-28T22:02:34.002Z,8.80
2022-09-28T22:05:07.196Z,6.70
2022-09-28T22:07:40.007Z,6.50
2022-09-28T22:10:15.430Z,6.90
2022-09-28T22:12:47.347Z,6.00
2022-09-28T22:15:19.294Z,11.20
2022-09-28T22:17:51.150Z,10.20
2022-09-28T22:20:23.190Z,8.80
2022-09-28T22:22:55.051Z,8.50
2022-09-28T22:25:26.993Z,6.40
2022-09-28T22:27:58.841Z,5.70
2022-09-28T22:30:30.649Z,5.00
2022-09-28T22:33:02.844Z,5.50
2022-09-28T22:35:34.944Z,6.10
2022-09-28T22:38:06.793Z,5.10
2022-09-28T22:40:42.989Z,4.70
2022-09-28T22:43:14.897Z,5.80
2022-09-28T22:45:47.206Z,5.90
2022-09-28T22:48:19.034Z,4.70
2022-09-28T22:50:54.209Z,5.60
2022-09-28T22:53:26.168Z,6.70
2022-09-28T22:55:58.843Z,7.40
2022-09-28T22:58:30.767Z,9.20
2022-09-28T23:01:09.854Z,8.90
2022-09-28T23:03:42.762Z,8.40
2022-09-28T23:06:16.724Z,9.80
2022-09-28T23:08:50.614Z,10.50
2022-09-28T23:11:22.760Z,14.80
2022-09-28T23:13:56.530Z,14.90
2022-09-28T23:16:30.193Z,15.00
2022-09-28T23:19:02.189Z,12.60
2022-09-28T23:21:34.337Z,10.40
2022-09-28T23:24:06.363Z,10.70
2022-09-28T23:26:38.162Z,11.80
2022-09-28T23:29:11.761Z,12.40
2022-09-28T23:31:44.238Z,10.10
2022-09-28T23:34:16.099Z,7.80
2022-09-28T23:36:48.147Z,10.90
2022-09-28T23:39:20.395Z,11.10
2022-09-28T23:41:52.322Z,13.10
2022-09-28T23:44:24.224Z,10.50
2022-09-28T23:46:56.200Z,6.40
2022-09-28T23:49:28.708Z,5.50
2022-09-28T23:52:01.177Z,5.00
2022-09-28T23:54:33.045Z,5.90
2022-09-28T23:57:04.882Z,7.20
2022-09-28T23:59:36.711Z,6.80
